createdAt,value
2018-04-25T00:01:00.568Z,4.00
2018-04-25T00:03:28.856Z,4.70
2018-04-25T00:05:56.351Z,4.33
2018-04-25T00:08:23.864Z,4.50
2018-04-25T00:10:51.385Z,4.77
2018-04-25T00:13:19.664Z,4.17
2018-04-25T00:15:47.160Z,4.73
2018-04-25T00:18:14.721Z,4.80
2018-04-25T00:20:42.220Z,4.10
2018-04-25T00:23:09.739Z,4.03
2018-04-25T00:25:37.239Z,4.63
2018-04-25T00:28:04.732Z,3.90
2018-04-25T00:30:33.037Z,4.33
2018-04-25T00:33:00.532Z,4.60
2018-04-25T00:35:28.054Z,4.30
2018-04-25T00:37:55.617Z,3.73
2018-04-25T00:40:23.093Z,4.33
2018-04-25T00:42:50.594Z,4.70
2018-04-25T00:45:18.877Z,4.37
2018-04-25T00:47:47.141Z,4.87
2018-04-25T00:50:14.656Z,4.50
2018-04-25T00:52:42.157Z,3.93
2018-04-25T00:55:09.729Z,5.90
2018-04-25T00:57:37.997Z,4.87
2018-04-25T01:00:06.296Z,4.17
2018-04-25T01:02:33.863Z,4.47
2018-04-25T01:05:01.381Z,4.13
2018-04-25T01:07:28.878Z,4.50
2018-04-25T01:09:56.433Z,4.10
2018-04-25T01:12:23.988Z,4.10
2018-04-25T01:14:51.543Z,3.80
2018-04-25T01:17:19.804Z,4.70
2018-04-25T01:19:48.105Z,4.77
2018-04-25T01:22:16.485Z,4.03
2018-04-25T01:24:59.608Z,4.00
2018-04-25T01:27:27.165Z,4.43
2018-04-25T01:29:55.545Z,4.67
2018-04-25T01:32:23.100Z,4.63
2018-04-25T01:34:52.414Z,4.67
2018-04-25T01:37:34.456Z,5.00
2018-04-25T01:40:09.400Z,5.03
2018-04-25T01:45:40.912Z,4.60
2018-04-25T01:48:09.297Z,3.97
2018-04-25T01:50:37.826Z,4.63
2018-04-25T01:53:17.265Z,4.87
2018-04-25T01:55:56.737Z,4.33
2018-04-25T01:58:36.850Z,4.80
2018-04-25T02:01:16.326Z,5.77
2018-04-25T02:03:45.632Z,4.07
2018-04-25T02:06:13.199Z,4.67
2018-04-25T02:08:40.713Z,4.50
2018-04-25T02:11:08.221Z,5.57
2018-04-25T02:13:35.739Z,4.43
2018-04-25T02:16:03.236Z,5.00
2018-04-25T02:18:35.777Z,5.20
2018-04-25T02:21:04.074Z,5.00
2018-04-25T02:23:31.588Z,4.63
2018-04-25T02:25:59.192Z,4.37
2018-04-25T02:28:26.709Z,5.70
2018-04-25T02:30:54.208Z,5.00
2018-04-25T02:33:21.728Z,4.57
2018-04-25T02:35:49.224Z,4.90
2018-04-25T02:38:16.792Z,5.10
2018-04-25T02:40:44.354Z,4.70
2018-04-25T02:43:11.848Z,4.73
2018-04-25T02:45:39.358Z,4.60
2018-04-25T02:48:06.928Z,4.73
2018-04-25T02:50:34.440Z,4.87
2018-04-25T02:53:01.937Z,4.60
2018-04-25T02:55:29.456Z,5.10
2018-04-25T02:57:56.961Z,5.00
2018-04-25T03:00:24.474Z,4.80
2018-04-25T03:02:51.988Z,3.90
2018-04-25T03:05:19.505Z,4.93
2018-04-25T03:07:47.760Z,4.33
2018-04-25T03:10:15.276Z,4.87
2018-04-25T03:12:42.769Z,4.70
2018-04-25T03:15:10.281Z,5.00
2018-04-25T03:17:37.784Z,4.50
2018-04-25T03:20:05.303Z,5.40
2018-04-25T03:22:32.812Z,5.57
2018-04-25T03:25:01.078Z,5.80
2018-04-25T03:27:28.592Z,4.40
2018-04-25T03:29:56.092Z,5.13
2018-04-25T03:32:23.677Z,4.40
2018-04-25T03:34:51.118Z,4.90
2018-04-25T03:37:19.406Z,5.90
2018-04-25T03:39:47.673Z,5.20
2018-04-25T03:42:15.956Z,5.27
2018-04-25T03:44:44.216Z,5.10
2018-04-25T03:47:11.729Z,5.80
2018-04-25T03:49:39.230Z,6.10
2018-04-25T03:52:06.744Z,5.23
2018-04-25T03:54:34.241Z,5.80
2018-04-25T03:57:01.848Z,6.87
2018-04-25T03:59:30.108Z,6.23
2018-04-25T04:01:58.504Z,6.00
2018-04-25T04:04:26.004Z,6.00
2018-04-25T04:06:53.524Z,5.80
2018-04-25T04:09:21.021Z,6.37
2018-04-25T04:11:48.640Z,6.90
2018-04-25T04:14:16.142Z,6.60
2018-04-25T04:16:43.642Z,6.10
2018-04-25T04:19:11.916Z,6.93
2018-04-25T04:21:40.175Z,6.10
2018-04-25T04:24:07.688Z,6.00
2018-04-25T04:26:35.196Z,6.20
2018-04-25T04:29:02.709Z,6.30
2018-04-25T04:31:30.205Z,5.83
2018-04-25T04:33:58.484Z,5.73
2018-04-25T04:36:25.981Z,5.70
2018-04-25T04:38:53.493Z,5.50
2018-04-25T04:41:22.493Z,5.20
2018-04-25T04:43:50.013Z,6.17
2018-04-25T04:46:17.500Z,6.00
2018-04-25T04:48:46.534Z,6.27
2018-04-25T04:51:14.030Z,6.83
2018-04-25T04:53:41.545Z,6.80
2018-04-25T04:56:09.808Z,6.23
2018-04-25T04:58:38.090Z,6.17
2018-04-25T05:01:06.352Z,7.00
2018-04-25T05:03:33.864Z,6.10
2018-04-25T05:06:01.361Z,6.10
2018-04-25T05:08:28.939Z,6.77
2018-04-25T05:10:56.393Z,6.90
2018-04-25T05:13:24.672Z,5.93
2018-04-25T05:15:52.932Z,5.93
2018-04-25T05:18:21.956Z,6.40
2018-04-25T05:20:49.521Z,6.63
2018-04-25T05:23:17.050Z,5.67
2018-04-25T05:25:44.550Z,5.87
2018-04-25T05:28:12.064Z,5.87
2018-04-25T05:30:39.580Z,6.30
2018-04-25T05:33:07.077Z,6.23
2018-04-25T05:35:34.598Z,6.07
2018-04-25T05:38:02.096Z,6.40
2018-04-25T05:40:29.685Z,7.07
2018-04-25T05:42:57.244Z,8.20
2018-04-25T05:45:24.761Z,7.93
2018-04-25T05:47:53.020Z,6.53
2018-04-25T05:50:20.532Z,5.70
2018-04-25T05:52:48.036Z,7.13
2018-04-25T05:55:15.548Z,7.37
2018-04-25T05:57:43.044Z,6.00
2018-04-25T06:00:10.561Z,6.07
2018-04-25T06:02:38.056Z,6.23
2018-04-25T06:05:05.576Z,5.83
2018-04-25T06:07:33.837Z,5.63
2018-04-25T06:10:02.117Z,6.13
2018-04-25T06:12:30.424Z,5.90
2018-04-25T06:14:58.688Z,5.77
2018-04-25T06:17:26.252Z,6.73
2018-04-25T06:19:53.769Z,6.10
2018-04-25T06:22:21.265Z,4.47
2018-04-25T06:24:48.856Z,4.90
2018-04-25T06:27:16.352Z,5.50
2018-04-25T06:29:43.867Z,4.90
2018-04-25T06:32:11.373Z,5.43
2018-04-25T06:34:39.656Z,6.30
2018-04-25T06:37:07.940Z,5.70
2018-04-25T06:39:36.207Z,4.70
2018-04-25T06:42:04.492Z,4.77
2018-04-25T06:44:32.757Z,4.80
2018-04-25T06:47:01.041Z,4.87
2018-04-25T06:49:29.305Z,4.60
2018-04-25T06:51:57.580Z,5.00
2018-04-25T06:54:25.881Z,4.97
2018-04-25T06:56:53.437Z,4.50
2018-04-25T06:59:20.936Z,5.57
2018-04-25T07:01:48.452Z,5.07
2018-04-25T07:04:15.949Z,4.53
2018-04-25T07:06:43.457Z,4.43
2018-04-25T07:09:11.748Z,5.53
2018-04-25T07:11:39.265Z,4.80
2018-04-25T07:14:06.790Z,5.20
2018-04-25T07:16:34.288Z,5.60
2018-04-25T07:19:01.785Z,6.90
2018-04-25T07:21:29.301Z,5.30
2018-04-25T07:23:56.980Z,4.90
2018-04-25T07:26:24.420Z,5.67
2018-04-25T07:28:52.010Z,4.63
2018-04-25T07:31:19.572Z,5.00
2018-04-25T07:33:47.088Z,4.70
2018-04-25T07:36:14.696Z,5.10
2018-04-25T07:38:42.197Z,5.60
2018-04-25T07:41:09.708Z,5.40
2018-04-25T07:43:37.264Z,5.33
2018-04-25T07:46:04.785Z,5.07
2018-04-25T07:48:32.294Z,6.23
2018-04-25T07:50:59.808Z,5.70
2018-04-25T07:53:27.308Z,5.30
2018-04-25T07:55:54.857Z,5.33
2018-04-25T07:58:22.422Z,4.87
2018-04-25T08:03:23.637Z,5.17
2018-04-25T08:05:51.174Z,5.40
2018-04-25T08:08:18.801Z,4.73
2018-04-25T08:10:46.316Z,5.73
2018-04-25T08:13:25.791Z,4.77
2018-04-25T08:16:05.948Z,5.07
2018-04-25T08:18:45.484Z,4.90
2018-04-25T08:24:13.153Z,4.93
2018-04-25T08:26:41.437Z,4.53
2018-04-25T08:29:09.697Z,4.77
2018-04-25T08:31:37.212Z,4.93
2018-04-25T08:34:04.706Z,4.83
2018-04-25T08:36:32.221Z,5.20
2018-04-25T08:38:59.715Z,5.10
2018-04-25T08:41:27.239Z,5.00
2018-04-25T08:43:54.730Z,4.77
2018-04-25T08:46:22.228Z,4.77
2018-04-25T08:48:49.761Z,5.53
2018-04-25T08:51:17.253Z,5.30
2018-04-25T08:53:44.764Z,4.93
2018-04-25T08:56:12.363Z,4.90
2018-04-25T08:58:39.920Z,5.13
2018-04-25T09:01:08.185Z,5.00
2018-04-25T09:03:36.461Z,4.20
2018-04-25T09:06:04.752Z,4.80
2018-04-25T09:08:32.308Z,4.07
2018-04-25T09:10:59.804Z,4.80
2018-04-25T09:13:27.424Z,6.00
2018-04-25T09:15:55.684Z,5.40
2018-04-25T09:18:23.968Z,5.80
2018-04-25T09:20:52.228Z,4.60
2018-04-25T09:23:19.744Z,5.13
2018-04-25T09:25:47.244Z,5.83
2018-04-25T09:28:14.761Z,4.83
2018-04-25T09:30:42.260Z,4.80
2018-04-25T09:33:09.773Z,5.17
2018-04-25T09:35:37.326Z,4.90
2018-04-25T09:38:05.564Z,4.13
2018-04-25T09:40:33.826Z,4.83
2018-04-25T09:43:01.415Z,5.20
2018-04-25T09:45:28.977Z,4.83
2018-04-25T09:47:56.532Z,4.20
2018-04-25T09:50:24.024Z,4.60
2018-04-25T09:52:51.633Z,4.33
2018-04-25T09:55:19.897Z,4.23
2018-04-25T09:57:47.509Z,4.27
2018-04-25T10:00:15.009Z,5.00
2018-04-25T10:02:43.289Z,4.30
2018-04-25T10:05:10.780Z,4.57
2018-04-25T10:07:38.292Z,4.50
2018-04-25T10:10:05.784Z,4.33
2018-04-25T10:12:34.067Z,5.33
2018-04-25T10:15:02.335Z,5.67
2018-04-25T10:17:30.629Z,3.60
2018-04-25T10:19:58.126Z,4.73
2018-04-25T10:22:25.643Z,4.43
2018-04-25T10:24:53.141Z,4.60
2018-04-25T10:27:20.652Z,3.80
2018-04-25T10:29:48.153Z,4.33
2018-04-25T10:32:15.668Z,5.67
2018-04-25T10:34:43.951Z,4.17
2018-04-25T10:37:11.513Z,4.03
2018-04-25T10:39:39.025Z,4.70
2018-04-25T10:42:08.033Z,4.37
2018-04-25T10:44:36.341Z,3.70
2018-04-25T10:47:03.837Z,4.57
2018-04-25T10:49:31.351Z,4.37
2018-04-25T10:51:58.845Z,4.40
2018-04-25T10:54:26.364Z,4.50
2018-04-25T10:56:53.933Z,4.70
2018-04-25T10:59:21.444Z,4.30
2018-04-25T11:01:48.936Z,4.10
2018-04-25T11:04:17.209Z,3.80
2018-04-25T11:06:45.472Z,4.80
2018-04-25T11:09:13.752Z,4.63
2018-04-25T11:11:42.020Z,4.73
2018-04-25T11:14:09.604Z,4.03
2018-04-25T11:16:37.165Z,4.60
2018-04-25T11:19:04.681Z,4.77
2018-04-25T11:21:32.176Z,4.10
2018-04-25T11:24:00.453Z,3.80
2018-04-25T11:26:28.719Z,3.53
2018-04-25T11:28:57.000Z,3.80
2018-04-25T11:31:25.256Z,3.70
2018-04-25T11:33:52.839Z,4.20
2018-04-25T11:36:21.096Z,4.07
2018-04-25T11:38:49.381Z,3.70
2018-04-25T11:41:17.646Z,3.70
2018-04-25T11:43:45.933Z,3.40
2018-04-25T11:46:14.198Z,3.80
2018-04-25T11:48:41.711Z,3.90
2018-04-25T11:51:09.205Z,4.13
2018-04-25T11:53:37.496Z,3.80
2018-04-25T11:56:05.764Z,4.60
2018-04-25T11:58:33.348Z,4.03
2018-04-25T12:01:00.914Z,4.47
2018-04-25T12:03:28.797Z,3.50
2018-04-25T12:05:56.297Z,4.00
2018-04-25T12:08:23.813Z,4.20
2018-04-25T12:10:51.303Z,4.07
2018-04-25T12:13:18.832Z,4.07
2018-04-25T12:15:46.335Z,5.53
2018-04-25T12:18:13.923Z,4.40
2018-04-25T12:20:41.416Z,4.13
2018-04-25T12:23:08.947Z,3.93
2018-04-25T12:25:36.505Z,3.80
2018-04-25T12:28:04.023Z,4.50
2018-04-25T12:30:31.528Z,3.93
2018-04-25T12:32:59.076Z,4.00
2018-04-25T12:35:26.575Z,4.20
2018-04-25T12:37:54.200Z,4.53
2018-04-25T12:40:21.695Z,4.40
2018-04-25T12:42:49.188Z,4.07
2018-04-25T12:45:17.477Z,4.30
2018-04-25T12:47:45.771Z,3.87
2018-04-25T12:50:13.280Z,4.47
2018-04-25T12:52:40.794Z,5.03
2018-04-25T12:55:08.305Z,4.50
2018-04-25T12:57:35.800Z,4.90
2018-04-25T13:00:03.320Z,4.53
2018-04-25T13:02:30.917Z,3.83
2018-04-25T13:04:58.476Z,3.77
2018-04-25T13:07:25.969Z,4.10
2018-04-25T13:09:53.480Z,3.40
2018-04-25T13:12:21.769Z,3.57
2018-04-25T13:14:49.285Z,4.23
2018-04-25T13:17:16.780Z,3.83
2018-04-25T13:19:44.291Z,3.83
2018-04-25T13:22:11.800Z,4.03
2018-04-25T13:24:39.356Z,4.23
2018-04-25T13:27:06.852Z,4.07
2018-04-25T13:29:34.369Z,4.20
2018-04-25T13:32:02.629Z,4.20
2018-04-25T13:34:30.912Z,3.80
2018-04-25T13:36:59.172Z,4.60
2018-04-25T13:39:26.684Z,4.50
2018-04-25T13:41:54.224Z,4.60
2018-04-25T13:44:21.739Z,4.73
2018-04-25T13:46:49.257Z,3.90
2018-04-25T13:49:16.799Z,4.20
2018-04-25T13:51:44.292Z,4.50
2018-04-25T13:54:11.804Z,4.90
2018-04-25T13:56:40.064Z,4.83
2018-04-25T13:59:08.344Z,5.30
2018-04-25T14:01:36.609Z,4.70
2018-04-25T14:04:04.121Z,5.60
2018-04-25T14:06:31.616Z,4.93
2018-04-25T14:08:59.212Z,4.60
2018-04-25T14:11:26.708Z,4.50
2018-04-25T14:13:54.216Z,5.80
2018-04-25T14:16:22.488Z,6.07
2018-04-25T14:18:50.780Z,5.30
2018-04-25T14:21:18.278Z,4.40
2018-04-25T14:23:45.900Z,5.30
2018-04-25T14:26:13.472Z,5.23
2018-04-25T14:28:41.020Z,5.30
2018-04-25T14:31:08.520Z,5.23
2018-04-25T14:33:36.136Z,5.37
2018-04-25T14:36:03.632Z,5.30
2018-04-25T14:38:31.152Z,5.30
2018-04-25T14:40:58.730Z,5.33
2018-04-25T14:43:26.232Z,4.73
2018-04-25T14:45:53.748Z,5.30
2018-04-25T14:48:21.258Z,5.60
2018-04-25T14:50:48.845Z,5.73
2018-04-25T14:53:16.410Z,5.27
2018-04-25T14:55:43.941Z,5.17
2018-04-25T14:58:11.757Z,6.10
2018-04-25T15:00:39.299Z,5.27
2018-04-25T15:03:06.834Z,4.77
2018-04-25T15:05:35.124Z,6.13
2018-04-25T15:08:02.653Z,5.47
2018-04-25T15:10:30.184Z,4.93
2018-04-25T15:12:58.488Z,5.03
2018-04-25T15:15:26.884Z,5.43
2018-04-25T15:17:56.160Z,5.77
2018-04-25T15:20:23.689Z,5.27
2018-04-25T15:22:51.184Z,6.47
2018-04-25T15:25:18.703Z,5.67
2018-04-25T15:27:46.200Z,4.57
2018-04-25T15:30:13.709Z,5.07
2018-04-25T15:32:41.220Z,5.70
2018-04-25T15:35:08.728Z,4.87
2018-04-25T15:37:36.220Z,4.90
2018-04-25T15:40:03.737Z,5.90
2018-04-25T15:42:31.233Z,5.43
2018-04-25T15:44:58.744Z,5.40
2018-04-25T15:47:26.244Z,5.40
2018-04-25T15:49:53.756Z,5.00
2018-04-25T15:52:21.257Z,5.00
2018-04-25T15:54:48.772Z,5.70
2018-04-25T15:57:16.326Z,4.63
2018-04-25T15:59:43.884Z,4.30
2018-04-25T16:02:11.449Z,5.17
2018-04-25T16:04:39.008Z,5.43
2018-04-25T16:07:06.564Z,5.37
2018-04-25T16:09:34.081Z,5.50
2018-04-25T16:12:01.610Z,6.07
2018-04-25T16:14:29.246Z,5.40
2018-04-25T16:16:56.801Z,5.60
2018-04-25T16:19:24.316Z,5.10
2018-04-25T16:21:51.812Z,5.00
2018-04-25T16:24:20.088Z,5.30
2018-04-25T16:26:48.356Z,5.30
2018-04-25T16:29:16.652Z,5.17
2018-04-25T16:31:44.169Z,4.80
2018-04-25T16:34:11.765Z,4.87
2018-04-25T16:36:39.280Z,5.37
2018-04-25T16:39:07.547Z,5.23
2018-04-25T16:41:35.061Z,5.80
2018-04-25T16:44:02.621Z,5.07
2018-04-25T16:46:30.133Z,5.33
2018-04-25T16:48:57.637Z,5.93
2018-04-25T16:51:25.148Z,5.30
2018-04-25T16:53:52.644Z,5.13
2018-04-25T16:56:20.928Z,5.50
2018-04-25T16:58:48.428Z,5.13
2018-04-25T17:01:15.940Z,5.37
2018-04-25T17:03:44.348Z,5.70
2018-04-25T17:06:11.865Z,6.43
2018-04-25T17:08:40.124Z,5.30
2018-04-25T17:11:07.640Z,5.40
2018-04-25T17:13:35.136Z,5.77
2018-04-25T17:16:02.777Z,4.80
2018-04-25T17:18:30.288Z,5.03
2018-04-25T17:20:57.805Z,5.27
2018-04-25T17:23:25.304Z,5.67
2018-04-25T17:25:52.820Z,5.60
2018-04-25T17:28:20.316Z,5.73
2018-04-25T17:30:48.596Z,6.00
2018-04-25T17:33:16.156Z,6.60
2018-04-25T17:35:43.672Z,5.80
2018-04-25T17:38:11.171Z,5.80
2018-04-25T17:40:38.728Z,6.40
2018-04-25T17:43:06.231Z,6.30
2018-04-25T17:45:33.748Z,6.20
2018-04-25T17:48:01.244Z,5.57
2018-04-25T17:50:28.757Z,5.20
2018-04-25T17:52:57.021Z,7.10
2018-04-25T17:55:25.312Z,6.00
2018-04-25T17:57:52.884Z,5.90
2018-04-25T18:00:20.401Z,6.07
2018-04-25T18:02:47.896Z,5.70
2018-04-25T18:05:15.412Z,5.97
2018-04-25T18:07:42.909Z,5.90
2018-04-25T18:10:10.425Z,6.30
2018-04-25T18:12:38.031Z,6.70
2018-04-25T18:15:05.564Z,5.33
2018-04-25T18:17:33.827Z,6.30
2018-04-25T18:20:01.342Z,5.90
2018-04-25T18:22:28.876Z,5.67
2018-04-25T18:24:56.390Z,5.00
2018-04-25T18:27:23.904Z,4.87
2018-04-25T18:29:51.400Z,5.53
2018-04-25T18:32:18.914Z,6.30
2018-04-25T18:34:46.413Z,5.40
2018-04-25T18:37:14.095Z,5.50
2018-04-25T18:39:41.588Z,5.30
2018-04-25T18:42:09.101Z,4.93
2018-04-25T18:44:36.596Z,5.30
2018-04-25T18:47:04.880Z,5.13
2018-04-25T18:49:32.396Z,5.17
2018-04-25T18:51:59.908Z,5.50
2018-04-25T18:54:27.408Z,6.10
2018-04-25T18:56:55.013Z,5.20
2018-04-25T18:59:22.517Z,5.97
2018-04-25T19:01:50.129Z,4.97
2018-04-25T19:04:18.388Z,6.47
2018-04-25T19:06:46.665Z,5.77
2018-04-25T19:09:14.928Z,5.57
2018-04-25T19:11:42.448Z,5.33
2018-04-25T19:14:09.980Z,5.80
2018-04-25T19:16:37.496Z,4.73
2018-04-25T19:19:04.988Z,5.63
2018-04-25T19:21:32.516Z,6.07
2018-04-25T19:24:00.109Z,5.20
2018-04-25T19:26:27.624Z,5.83
2018-04-25T19:28:55.137Z,6.73
2018-04-25T19:31:22.652Z,5.17
2018-04-25T19:33:50.153Z,5.90
2018-04-25T19:36:17.700Z,5.67
2018-04-25T19:38:45.259Z,5.77
2018-04-25T19:41:13.016Z,5.90
2018-04-25T19:43:41.276Z,5.83
2018-04-25T19:46:09.557Z,5.47
2018-04-25T19:48:37.816Z,5.80
2018-04-25T19:51:05.407Z,5.80
2018-04-25T19:53:33.696Z,5.80
2018-04-25T19:56:01.212Z,5.60
2018-04-25T19:58:28.708Z,6.10
2018-04-25T20:00:56.348Z,6.30
2018-04-25T20:03:24.648Z,6.50
2018-04-25T20:05:52.161Z,5.70
2018-04-25T20:08:19.767Z,5.70
2018-04-25T20:10:47.281Z,6.10
2018-04-25T20:13:14.777Z,6.10
2018-04-25T20:15:42.332Z,5.80
2018-04-25T20:18:10.594Z,6.57
2018-04-25T20:20:38.121Z,6.10
2018-04-25T20:23:05.621Z,6.10
2018-04-25T20:25:33.884Z,6.33
2018-04-25T20:28:01.413Z,5.70
2018-04-25T20:30:28.917Z,7.53
2018-04-25T20:32:56.434Z,6.60
2018-04-25T20:35:24.037Z,6.57
2018-04-25T20:37:51.552Z,5.60
2018-04-25T20:40:19.049Z,5.57
2018-04-25T20:42:47.324Z,6.50
2018-04-25T20:45:14.835Z,5.53
2018-04-25T20:47:42.349Z,5.93
2018-04-25T20:50:09.852Z,6.30
2018-04-25T20:52:37.368Z,5.50
2018-04-25T20:55:04.877Z,6.33
2018-04-25T20:57:32.391Z,5.83
2018-04-25T20:59:59.940Z,6.23
2018-04-25T21:02:27.580Z,6.43
2018-04-25T21:04:55.058Z,5.87
2018-04-25T21:07:22.658Z,7.20
2018-04-25T21:09:50.399Z,6.30
2018-04-25T21:12:18.145Z,6.90
2018-04-25T21:14:45.658Z,6.63
2018-04-25T21:17:13.221Z,6.90
2018-04-25T21:19:41.527Z,6.33
2018-04-25T21:22:09.811Z,6.60
2018-04-25T21:24:37.429Z,6.47
2018-04-25T21:27:05.028Z,7.03
2018-04-25T21:29:32.544Z,6.73
2018-04-25T21:32:00.700Z,6.50
2018-04-25T21:34:29.037Z,6.60
2018-04-25T21:36:56.935Z,6.23
2018-04-25T21:39:24.494Z,8.00
2018-04-25T21:41:52.024Z,6.90
2018-04-25T21:44:19.713Z,7.40
2018-04-25T21:46:47.277Z,7.50
2018-04-25T21:49:14.809Z,6.60
2018-04-25T21:51:42.404Z,7.27
2018-04-25T21:54:10.047Z,6.83
2018-04-25T21:56:37.672Z,7.10
2018-04-25T21:59:05.230Z,8.30
2018-04-25T22:01:33.569Z,7.93
2018-04-25T22:04:01.091Z,8.43
2018-04-25T22:06:28.635Z,8.20
2018-04-25T22:08:56.910Z,8.70
2018-04-25T22:11:25.193Z,8.87
2018-04-25T22:13:53.521Z,9.70
2018-04-25T22:16:20.984Z,9.13
2018-04-25T22:18:48.484Z,11.03
2018-04-25T22:21:16.763Z,9.80
2018-04-25T22:23:44.309Z,9.70
2018-04-25T22:26:12.574Z,9.67
2018-04-25T22:28:40.158Z,8.50
2018-04-25T22:31:08.424Z,8.73
2018-04-25T22:33:36.705Z,8.67
2018-04-25T22:36:04.989Z,8.70
2018-04-25T22:38:32.500Z,9.77
2018-04-25T22:41:00.000Z,10.40
2018-04-25T22:43:28.285Z,10.73
2018-04-25T22:45:55.846Z,10.47
2018-04-25T22:48:23.367Z,10.73
2018-04-25T22:50:50.868Z,11.00
2018-04-25T22:53:18.464Z,11.40
2018-04-25T22:55:45.936Z,11.77
2018-04-25T22:58:13.528Z,11.83
2018-04-25T23:00:41.788Z,12.10
2018-04-25T23:03:10.068Z,12.53
2018-04-25T23:05:38.444Z,11.90
2018-04-25T23:08:06.747Z,12.10
2018-04-25T23:10:34.241Z,11.57
2018-04-25T23:13:01.756Z,11.80
2018-04-25T23:15:29.261Z,11.73
2018-04-25T23:17:56.771Z,11.77
2018-04-25T23:20:24.288Z,12.27
2018-04-25T23:22:51.798Z,12.60
2018-04-25T23:25:19.301Z,13.07
2018-04-25T23:27:46.816Z,11.80
2018-04-25T23:30:14.381Z,11.17
2018-04-25T23:32:41.892Z,11.80
2018-04-25T23:35:09.397Z,11.67
2018-04-25T23:37:36.911Z,11.10
2018-04-25T23:40:04.413Z,12.00
2018-04-25T23:42:31.953Z,10.93
2018-04-25T23:44:59.456Z,11.43
2018-04-25T23:47:26.968Z,11.77
2018-04-25T23:49:54.464Z,11.50
2018-04-25T23:52:21.985Z,12.10
2018-04-25T23:54:49.480Z,11.67
2018-04-25T23:57:17.043Z,12.30
2018-04-25T23:59:44.557Z,10.83
